Time;durP1;ratioP1;P1;durP2;ratioP2;P2;SDS_P1;SDS_P2;PMS_P1;PMS_P2;Temp;Humidity;BMP_temperature;BMP_pressure;BME280_temperature;BME280_humidity;BME280_pressure;Samples;Min_cycle;Max_cycle;Signal;HPM_P1;HPM_P2
2023/04/01 00:01:27;;;;;;;23.27;2.60;;;13.80;92.60;;;;;;7401086;19;20011;-72
2023/04/01 00:03:56;;;;;;;11.43;1.95;;;13.60;92.50;;;;;;7378987;19;20158;-73
2023/04/01 00:06:26;;;;;;;18.77;2.78;;;13.70;92.40;;;;;;7378979;19;20006;-73
2023/04/01 00:08:55;;;;;;;11.30;1.65;;;13.80;92.40;;;;;;7380026;19;20024;-73
2023/04/01 00:11:23;;;;;;;19.90;2.05;;;13.80;92.10;;;;;;7378771;19;20219;-73
2023/04/01 00:13:52;;;;;;;14.52;2.47;;;13.50;92.80;;;;;;7377392;19;20017;-73
2023/04/01 00:16:21;;;;;;;15.45;1.92;;;13.50;92.70;;;;;;7401241;19;20018;-73
2023/04/01 00:18:54;;;;;;;9.13;1.60;;;13.40;92.80;;;;;;7378291;19;20470;-72
2023/04/01 00:21:23;;;;;;;17.48;2.47;;;13.60;93.00;;;;;;7378265;19;20329;-73
2023/04/01 00:23:53;;;;;;;11.43;1.80;;;13.50;93.10;;;;;;7378654;19;20266;-73
2023/04/01 00:26:23;;;;;;;11.93;2.30;;;13.60;93.00;;;;;;7379579;19;20007;-73
2023/04/01 00:28:52;;;;;;;7.85;2.00;;;13.70;92.90;;;;;;7378460;19;20011;-73
2023/04/01 00:31:21;;;;;;;9.40;1.95;;;13.70;92.80;;;;;;7399004;19;20019;-73
2023/04/01 00:33:54;;;;;;;9.57;2.10;;;13.70;92.90;;;;;;7377805;19;20015;-73
2023/04/01 00:36:24;;;;;;;12.10;1.70;;;13.60;92.50;;;;;;7378665;19;20015;-73
2023/04/01 00:38:54;;;;;;;15.55;1.90;;;13.60;92.50;;;;;;7379108;19;20011;-73
2023/04/01 00:41:23;;;;;;;11.05;2.20;;;13.80;92.20;;;;;;7379458;19;20095;-73
2023/04/01 00:43:53;;;;;;;12.80;2.40;;;13.50;92.40;;;;;;7380364;19;20006;-73
2023/04/01 00:46:22;;;;;;;11.00;2.17;;;13.80;92.40;;;;;;7400332;19;20011;-73
2023/04/01 00:48:57;;;;;;;17.90;2.20;;;13.70;92.70;;;;;;7378022;19;20375;-74
2023/04/01 00:51:30;;;;;;;18.15;2.85;;;14.00;92.60;;;;;;7377284;19;20279;-73
2023/04/01 00:54:03;;;;;;;11.88;2.42;;;14.00;92.40;;;;;;7377038;19;20246;-73
2023/04/01 00:56:37;;;;;;;17.70;2.60;;;14.00;92.40;;;;;;7379354;19;20010;-72
2023/04/01 00:59:10;;;;;;;16.85;2.65;;;14.20;92.40;;;;;;7380225;19;20024;-72
2023/04/01 01:01:39;;;;;;;21.20;3.42;;;13.90;92.50;;;;;;7401292;19;20011;-74
2023/04/01 01:04:24;;;;;;;22.20;3.65;;;13.60;93.30;;;;;;7378021;19;20010;-73
2023/04/01 01:07:02;;;;;;;22.83;2.40;;;13.40;93.20;;;;;;7377380;19;20027;-72
2023/04/01 01:09:39;;;;;;;15.35;2.10;;;13.60;93.20;;;;;;7377772;19;20006;-72
2023/04/01 01:12:14;;;;;;;14.85;2.03;;;13.80;93.00;;;;;;7376888;19;20007;-72
2023/04/01 01:14:55;;;;;;;12.15;2.15;;;13.90;92.70;;;;;;7377351;19;20055;-73
2023/04/01 01:17:35;;;;;;;6.03;1.60;;;13.90;92.50;;;;;;7377106;19;20014;-73
2023/04/01 01:20:36;;;;;;;10.93;2.00;;;13.80;92.50;;;;;;7377812;19;20003;-73
2023/04/01 01:23:32;;;;;;;7.88;1.52;;;13.70;92.50;;;;;;7375936;19;20007;-72
2023/04/01 01:26:40;;;;;;;7.72;1.75;;;13.70;92.50;;;;;;7377151;19;20304;-73
2023/04/01 01:29:18;;;;;;;9.98;1.67;;;13.60;92.50;;;;;;7377366;19;20020;-74
2023/04/01 01:32:00;;;;;;;17.02;2.33;;;13.90;92.40;;;;;;7396107;19;20028;-74
2023/04/01 01:34:36;;;;;;;14.20;1.65;;;13.80;92.50;;;;;;7377032;19;20023;-73
2023/04/01 01:37:12;;;;;;;8.77;1.92;;;13.70;92.40;;;;;;7376749;19;20006;-73
2023/04/01 01:39:44;;;;;;;16.23;1.90;;;13.80;92.40;;;;;;7376652;19;20088;-73
2023/04/01 01:42:17;;;;;;;15.43;1.63;;;13.50;92.80;;;;;;7376684;19;19999;-74
2023/04/01 01:44:48;;;;;;;12.35;1.83;;;13.60;93.30;;;;;;7377192;19;20011;-73
2023/04/01 01:47:18;;;;;;;8.60;1.48;;;13.40;93.10;;;;;;7375359;19;20006;-74
2023/04/01 01:49:48;;;;;;;11.52;1.92;;;13.30;93.50;;;;;;7398453;19;20007;-73
2023/04/01 01:52:19;;;;;;;6.82;1.33;;;13.60;93.20;;;;;;7379125;19;20417;-73
2023/04/01 01:54:52;;;;;;;7.82;1.55;;;13.40;93.40;;;;;;7383159;19;19998;-73
2023/04/01 01:57:23;;;;;;;6.50;1.42;;;13.40;93.70;;;;;;7383570;19;20034;-73
2023/04/01 01:59:55;;;;;;;11.18;1.70;;;13.50;93.50;;;;;;7384070;19;20335;-73
2023/04/01 02:02:25;;;;;;;10.70;1.50;;;13.40;93.40;;;;;;7384339;19;20014;-73
2023/04/01 02:04:55;;;;;;;7.60;1.45;;;13.50;93.30;;;;;;7383063;19;20138;-73
2023/04/01 02:07:30;;;;;;;7.68;1.55;;;13.30;93.20;;;;;;7404890;19;20071;-73
2023/04/01 02:09:59;;;;;;;12.10;1.67;;;13.40;93.30;;;;;;7382850;19;20035;-73
2023/04/01 02:12:28;;;;;;;14.85;1.90;;;13.50;93.20;;;;;;7383448;19;20054;-73
2023/04/01 02:15:01;;;;;;;13.55;1.88;;;13.30;92.80;;;;;;7383153;19;20010;-73
2023/04/01 02:17:32;;;;;;;12.48;1.63;;;13.20;92.90;;;;;;7383104;19;20020;-73
2023/04/01 02:20:04;;;;;;;14.25;1.70;;;13.20;92.80;;;;;;7383103;19;20015;-72
2023/04/01 02:22:38;;;;;;;11.95;1.73;;;13.20;92.80;;;;;;7402838;19;20013;-73
2023/04/01 02:25:10;;;;;;;18.80;1.80;;;13.40;92.60;;;;;;7382368;19;20116;-73
2023/04/01 02:27:40;;;;;;;9.55;1.63;;;13.40;92.60;;;;;;7382407;19;20066;-73
2023/04/01 02:30:10;;;;;;;15.63;2.45;;;13.50;92.20;;;;;;7381719;19;20020;-73
2023/04/01 02:32:41;;;;;;;14.98;1.55;;;13.60;92.10;;;;;;7381335;19;20023;-73
2023/04/01 02:35:12;;;;;;;13.18;1.75;;;13.50;92.00;;;;;;7381965;19;19999;-73
2023/04/01 02:37:46;;;;;;;9.10;1.33;;;13.30;91.80;;;;;;7403599;19;20279;-73
2023/04/01 02:40:16;;;;;;;12.15;1.65;;;13.20;92.20;;;;;;7382031;19;19999;-73
2023/04/01 02:42:45;;;;;;;8.80;1.50;;;13.40;92.10;;;;;;7381496;19;20393;-74
2023/04/01 02:45:15;;;;;;;9.57;1.10;;;13.70;91.90;;;;;;7382213;19;20003;-73
2023/04/01 02:47:44;;;;;;;8.85;1.23;;;13.80;91.40;;;;;;7381419;19;20011;-74
2023/04/01 02:50:13;;;;;;;12.63;1.80;;;13.70;91.30;;;;;;7383198;19;20007;-74
2023/04/01 02:52:45;;;;;;;10.32;1.70;;;13.70;91.20;;;;;;7403058;19;20260;-73
2023/04/01 02:55:13;;;;;;;8.40;1.83;;;13.50;91.40;;;;;;7382787;19;20023;-73
2023/04/01 02:57:42;;;;;;;8.07;1.63;;;13.70;91.40;;;;;;7381766;19;20019;-73
2023/04/01 03:00:12;;;;;;;9.18;1.40;;;13.50;91.60;;;;;;7382720;19;20097;-74
2023/04/01 03:02:41;;;;;;;6.00;1.38;;;13.60;91.40;;;;;;7379634;19;20406;-72
2023/04/01 03:05:11;;;;;;;13.90;1.60;;;13.60;91.30;;;;;;7381535;19;20319;-73
2023/04/01 03:07:39;;;;;;;9.40;1.38;;;13.30;91.80;;;;;;7401545;19;20378;-73
2023/04/01 03:10:12;;;;;;;8.45;1.55;;;13.40;91.80;;;;;;7381326;19;20026;-73
2023/04/01 03:12:41;;;;;;;14.32;1.65;;;13.30;91.80;;;;;;7379542;19;20084;-73
2023/04/01 03:15:13;;;;;;;11.68;1.42;;;13.20;91.80;;;;;;7381539;19;20062;-73
2023/04/01 03:17:42;;;;;;;9.70;1.55;;;13.30;91.70;;;;;;7381151;19;20366;-73
2023/04/01 03:20:13;;;;;;;5.10;1.23;;;13.30;91.70;;;;;;7380954;19;20323;-73
2023/04/01 03:22:42;;;;;;;;;;;12.90;92.00;;;;;;7403799;19;20020;-73
2023/04/01 03:25:13;;;;;;;8.35;1.10;;;13.20;92.20;;;;;;7380054;19;19928;-73
2023/04/01 03:27:42;;;;;;;11.30;1.30;;;13.30;92.00;;;;;;7379851;19;20070;-73
2023/04/01 03:30:12;;;;;;;9.23;1.42;;;13.30;91.50;;;;;;7380781;19;20027;-74
2023/04/01 03:32:40;;;;;;;7.63;1.27;;;13.30;91.50;;;;;;7378912;19;20023;-73
2023/04/01 03:35:10;;;;;;;13.25;1.98;;;13.30;91.40;;;;;;7381039;19;19999;-73
2023/04/01 03:37:39;;;;;;;9.32;1.52;;;13.10;91.60;;;;;;7402976;19;20011;-73
2023/04/01 03:40:09;;;;;;;10.90;1.75;;;13.20;91.30;;;;;;7380357;19;20074;-73
2023/04/01 03:42:40;;;;;;;6.78;1.38;;;12.90;91.80;;;;;;7379970;19;20073;-73
2023/04/01 03:45:09;;;;;;;13.10;1.50;;;13.20;91.90;;;;;;7380285;19;20024;-73
2023/04/01 03:47:38;;;;;;;9.02;1.30;;;13.30;91.50;;;;;;7380200;19;20283;-73
2023/04/01 03:50:09;;;;;;;6.43;1.10;;;13.30;91.60;;;;;;7379477;19;20007;-73
2023/04/01 03:52:38;;;;;;;11.27;1.40;;;13.20;91.60;;;;;;7400733;19;20006;-73
2023/04/01 03:55:07;;;;;;;13.20;1.63;;;13.30;91.70;;;;;;7380154;19;20014;-73
2023/04/01 03:57:36;;;;;;;13.07;1.90;;;13.20;92.00;;;;;;7380140;19;20016;-73
2023/04/01 04:00:09;;;;;;;10.40;1.70;;;13.10;91.80;;;;;;7380463;19;20003;-73
2023/04/01 04:02:38;;;;;;;12.13;1.38;;;13.20;91.70;;;;;;7380846;19;20016;-73
2023/04/01 04:05:08;;;;;;;10.02;1.80;;;13.30;91.60;;;;;;7379997;19;20360;-73
2023/04/01 04:07:37;;;;;;;14.75;2.17;;;13.20;91.90;;;;;;7400770;19;20023;-74
2023/04/01 04:10:06;;;;;;;9.57;1.50;;;13.30;91.60;;;;;;7379055;19;20705;-73
2023/04/01 04:12:35;;;;;;;15.52;2.20;;;13.40;91.50;;;;;;7379250;19;20003;-73
2023/04/01 04:15:07;;;;;;;13.23;1.90;;;13.50;91.10;;;;;;7381013;19;20101;-73
2023/04/01 04:17:36;;;;;;;13.82;2.03;;;13.40;91.20;;;;;;7381414;19;20003;-73
2023/04/01 04:20:05;;;;;;;15.70;1.88;;;13.50;91.40;;;;;;7381098;19;20010;-73
2023/04/01 04:22:33;;;;;;;8.65;1.60;;;13.60;91.10;;;;;;7401634;19;20024;-74
2023/04/01 04:25:02;;;;;;;13.88;1.83;;;13.50;91.10;;;;;;7378464;19;20071;-74
2023/04/01 04:27:31;;;;;;;8.57;1.52;;;13.40;91.10;;;;;;7378279;19;20224;-74
2023/04/01 04:30:00;;;;;;;15.82;2.08;;;13.60;91.00;;;;;;7379899;19;20015;-73
2023/04/01 04:32:31;;;;;;;10.13;1.48;;;13.40;91.10;;;;;;7380346;19;20003;-73
2023/04/01 04:35:00;;;;;;;14.20;1.67;;;13.30;91.30;;;;;;7381233;19;20027;-73
2023/04/01 04:37:28;;;;;;;11.20;1.52;;;13.50;91.10;;;;;;7401080;19;20362;-74
2023/04/01 04:39:57;;;;;;;19.15;1.50;;;13.50;91.10;;;;;;7378092;19;20066;-73
2023/04/01 04:42:26;;;;;;;12.55;1.73;;;13.50;91.10;;;;;;7378288;19;20008;-73
2023/04/01 04:44:55;;;;;;;13.50;2.08;;;13.30;91.20;;;;;;7377984;19;20015;-73
2023/04/01 04:47:23;;;;;;;9.60;1.50;;;13.60;91.00;;;;;;7378760;19;20734;-73
2023/04/01 04:49:55;;;;;;;9.95;1.52;;;13.80;90.70;;;;;;7378847;19;20016;-73
2023/04/01 04:52:23;;;;;;;10.10;1.73;;;13.60;90.80;;;;;;7399644;19;20015;-73
2023/04/01 04:54:52;;;;;;;8.90;1.65;;;13.70;90.70;;;;;;7377386;19;20011;-74
2023/04/01 04:57:21;;;;;;;10.75;1.48;;;13.60;90.90;;;;;;7377496;19;20024;-74
2023/04/01 04:59:49;;;;;;;8.27;1.67;;;13.40;91.10;;;;;;7378475;19;20002;-73
2023/04/01 05:02:18;;;;;;;6.40;0.88;;;13.30;91.30;;;;;;7377321;19;20365;-74
2023/04/01 05:04:47;;;;;;;7.93;1.42;;;13.20;91.50;;;;;;7398656;19;20003;-73
2023/04/01 05:07:18;;;;;;;10.43;1.40;;;13.30;91.50;;;;;;7378261;19;20003;-73
2023/04/01 05:09:47;;;;;;;15.10;1.45;;;13.10;91.40;;;;;;7377939;19;20468;-73
2023/04/01 05:12:16;;;;;;;9.25;1.45;;;13.30;91.50;;;;;;7377292;19;20009;-74
2023/04/01 05:14:44;;;;;;;5.93;0.98;;;13.10;91.50;;;;;;7376832;19;20023;-73
2023/04/01 05:17:14;;;;;;;7.97;1.38;;;13.10;91.80;;;;;;7378215;19;20010;-73
2023/04/01 05:19:43;;;;;;;10.88;1.30;;;13.20;91.60;;;;;;7399043;19;20296;-74
2023/04/01 05:22:11;;;;;;;7.55;1.10;;;13.10;91.80;;;;;;7377306;19;20653;-73
2023/04/01 05:24:43;;;;;;;7.88;1.08;;;13.20;91.80;;;;;;7377230;19;20308;-73
2023/04/01 05:27:11;;;;;;;9.02;1.40;;;12.90;92.10;;;;;;7382266;19;20010;-73
2023/04/01 05:29:41;;;;;;;11.88;1.13;;;13.00;92.30;;;;;;7385812;19;20006;-73
2023/04/01 05:32:10;;;;;;;10.63;1.20;;;13.10;91.90;;;;;;7383375;19;20023;-73
2023/04/01 05:34:39;;;;;;;8.35;1.25;;;13.20;91.70;;;;;;7403039;19;20006;-73
2023/04/01 05:37:08;;;;;;;5.85;1.23;;;13.30;91.60;;;;;;7384183;19;20419;-73
2023/04/01 05:39:42;;;;;;;11.43;1.60;;;13.40;91.30;;;;;;7383711;19;20010;-73
2023/04/01 05:42:11;;;;;;;16.33;2.33;;;13.40;91.40;;;;;;7386199;19;20020;-73
2023/04/01 05:44:40;;;;;;;8.43;1.40;;;13.20;91.50;;;;;;7385403;19;20011;-73
2023/04/01 05:47:08;;;;;;;10.15;1.50;;;13.40;91.40;;;;;;7387197;19;20028;-74
2023/04/01 05:49:38;;;;;;;13.75;1.55;;;13.50;91.60;;;;;;7405872;19;20386;-73
2023/04/01 05:52:07;;;;;;;11.88;1.45;;;13.70;91.00;;;;;;7382599;19;20608;-73
2023/04/01 05:54:36;;;;;;;10.45;1.70;;;13.70;90.90;;;;;;7383345;19;20015;-73
2023/04/01 05:57:07;;;;;;;12.63;1.70;;;13.70;90.80;;;;;;7384237;19;20007;-73
2023/04/01 05:59:36;;;;;;;8.15;1.65;;;13.70;91.00;;;;;;7383709;19;20096;-73
2023/04/01 06:02:05;;;;;;;11.30;1.42;;;13.80;90.70;;;;;;7384989;19;20018;-73
2023/04/01 06:04:39;;;;;;;9.68;1.50;;;13.50;90.60;;;;;;7402691;19;20362;-73
2023/04/01 06:07:14;;;;;;;10.45;1.58;;;13.40;90.80;;;;;;7383078;19;20006;-73
2023/04/01 06:09:44;;;;;;;8.88;1.25;;;13.20;90.90;;;;;;7383082;19;20413;-73
2023/04/01 06:12:47;;;;;;;12.30;1.60;;;13.20;91.20;;;;;;7383083;19;20002;-73
2023/04/01 06:15:25;;;;;;;8.77;1.48;;;13.00;91.30;;;;;;7383516;19;20011;-74
2023/04/01 06:18:17;;;;;;;5.22;1.13;;;13.00;91.30;;;;;;7383980;19;20006;-73
2023/04/01 06:20:53;;;;;;;8.15;1.15;;;13.00;91.20;;;;;;7383457;19;20433;-73
2023/04/01 06:23:50;;;;;;;6.55;1.20;;;12.90;91.20;;;;;;7383798;19;20020;-73
2023/04/01 06:26:33;;;;;;;9.85;1.05;;;13.00;90.90;;;;;;7381342;19;20019;-73
2023/04/01 06:29:31;;;;;;;9.18;1.20;;;13.00;90.90;;;;;;7381368;19;20363;-73
2023/04/01 06:32:22;;;;;;;2.80;0.80;;;13.30;90.90;;;;;;7379271;19;20060;-73
2023/04/01 06:35:03;;;;;;;8.63;1.65;;;13.20;91.50;;;;;;7379586;19;20063;-73
2023/04/01 06:38:09;;;;;;;13.88;1.23;;;13.40;90.80;;;;;;7399820;19;20010;-73
2023/04/01 06:40:55;;;;;;;10.50;1.92;;;13.50;90.70;;;;;;7380641;19;20229;-73
2023/04/01 06:43:36;;;;;;;9.27;1.40;;;13.40;90.70;;;;;;7380914;19;20062;-73
2023/04/01 06:46:14;;;;;;;8.30;1.45;;;13.30;90.70;;;;;;7380428;19;20383;-73
2023/04/01 06:49:01;;;;;;;9.38;1.38;;;13.30;91.00;;;;;;7379106;19;20146;-73
2023/04/01 06:51:41;;;;;;;10.35;1.70;;;13.50;90.90;;;;;;7379921;19;20010;-73
2023/04/01 06:54:14;;;;;;;12.90;1.40;;;13.50;90.80;;;;;;7378970;19;20086;-73
2023/04/01 06:56:46;;;;;;;11.15;1.75;;;13.70;90.50;;;;;;7379258;19;20283;-73
2023/04/01 06:59:19;;;;;;;6.80;1.58;;;13.40;90.80;;;;;;7378188;19;20007;-73
2023/04/01 07:01:54;;;;;;;7.85;1.55;;;13.30;91.20;;;;;;7399330;19;20014;-73
2023/04/01 07:04:28;;;;;;;11.57;1.25;;;13.20;91.60;;;;;;7380288;19;20108;-73
2023/04/01 07:07:00;;;;;;;11.43;1.33;;;13.40;91.70;;;;;;7379359;19;20010;-74
2023/04/01 07:09:37;;;;;;;6.22;1.02;;;13.40;91.50;;;;;;7381038;19;20066;-74
2023/04/01 07:12:15;;;;;;;6.03;1.30;;;13.30;91.50;;;;;;7381405;19;20007;-73
2023/04/01 07:14:46;;;;;;;10.43;1.20;;;13.20;91.70;;;;;;7381532;19;20371;-74
2023/04/01 07:17:20;;;;;;;7.33;1.50;;;13.50;91.60;;;;;;7381778;19;20002;-73
2023/04/01 07:19:55;;;;;;;7.50;1.45;;;13.70;91.30;;;;;;7394672;19;20014;-73
2023/04/01 07:22:32;;;;;;;6.45;1.20;;;13.80;90.90;;;;;;7402498;19;20233;-73
2023/04/01 07:25:05;;;;;;;5.75;1.25;;;13.70;91.00;;;;;;7380384;19;20008;-73
2023/04/01 07:27:34;;;;;;;5.47;1.50;;;14.00;90.60;;;;;;7379824;19;20003;-73
2023/04/01 07:30:04;;;;;;;9.15;1.77;;;13.80;90.50;;;;;;7380897;19;20007;-73
2023/04/01 07:32:44;;;;;;;7.72;1.70;;;13.90;90.50;;;;;;7379712;19;20007;-73
2023/04/01 07:35:24;;;;;;;5.18;1.27;;;13.90;90.70;;;;;;7380078;19;20223;-73
2023/04/01 07:38:11;;;;;;;7.95;1.10;;;13.60;91.30;;;;;;7378389;19;20006;-73
2023/04/01 07:40:48;;;;;;;4.00;0.90;;;13.70;90.90;;;;;;7401692;19;20007;-73
2023/04/01 07:43:41;;;;;;;7.50;1.42;;;13.50;90.80;;;;;;7379898;19;20012;-73
2023/04/01 07:46:22;;;;;;;10.10;1.15;;;13.50;91.30;;;;;;7379944;19;20024;-72
2023/04/01 07:48:59;;;;;;;4.45;1.05;;;13.50;91.40;;;;;;7378549;19;20003;-73
2023/04/01 07:51:34;;;;;;;11.82;1.00;;;13.60;91.20;;;;;;7379764;19;20019;-73
2023/04/01 07:54:10;;;;;;;5.85;1.25;;;13.90;91.10;;;;;;7379762;19;20006;-73
2023/04/01 07:56:45;;;;;;;9.18;1.40;;;13.90;90.30;;;;;;7379940;19;20020;-73
2023/04/01 07:59:20;;;;;;;6.35;1.15;;;13.90;90.10;;;;;;7380522;19;20015;-73
2023/04/01 08:01:53;;;;;;;9.35;1.70;;;13.90;89.70;;;;;;7391043;19;20011;-73
2023/04/01 08:04:42;;;;;;;5.85;1.23;;;13.90;89.50;;;;;;7401817;19;20003;-74
2023/04/01 08:07:15;;;;;;;4.97;1.08;;;14.10;87.80;;;;;;7379460;19;20005;-73
2023/04/01 08:09:53;;;;;;;5.63;0.90;;;13.90;88.10;;;;;;7378889;19;20007;-74
2023/04/01 08:12:32;;;;;;;9.05;1.27;;;14.00;88.30;;;;;;7379091;19;20252;-73
2023/04/01 08:15:12;;;;;;;4.68;1.25;;;13.80;87.30;;;;;;7378424;19;20286;-73
2023/04/01 08:17:51;;;;;;;6.35;1.05;;;13.70;87.50;;;;;;7379120;19;19998;-73
2023/04/01 08:20:31;;;;;;;7.05;1.15;;;13.70;88.50;;;;;;7379287;19;20410;-73
2023/04/01 08:23:05;;;;;;;10.27;1.20;;;13.90;87.00;;;;;;7379248;19;20061;-74
2023/04/01 08:25:39;;;;;;;6.35;0.98;;;14.00;86.40;;;;;;7399988;19;20006;-74
2023/04/01 08:28:15;;;;;;;4.25;0.90;;;13.90;86.40;;;;;;7378166;19;20055;-73
2023/04/01 08:30:49;;;;;;;11.93;1.25;;;13.60;87.60;;;;;;7378048;19;20350;-73
2023/04/01 08:33:22;;;;;;;5.90;1.20;;;13.90;87.60;;;;;;7377252;19;20115;-74
2023/04/01 08:35:58;;;;;;;7.95;1.38;;;13.70;87.70;;;;;;7378439;19;20023;-73
2023/04/01 08:38:33;;;;;;;8.75;1.63;;;13.40;88.50;;;;;;7378405;19;20373;-73
2023/04/01 08:41:18;;;;;;;11.43;1.15;;;13.80;88.30;;;;;;7377852;19;20016;-73
2023/04/01 08:44:02;;;;;;;8.07;1.30;;;14.20;87.10;;;;;;7400284;19;20271;-73
2023/04/01 08:47:03;;;;;;;5.47;1.35;;;14.20;85.80;;;;;;7378311;19;20003;-74
2023/04/01 08:49:58;;;;;;;7.55;1.38;;;14.10;86.10;;;;;;7377612;19;20023;-73
2023/04/01 08:52:38;;;;;;;13.75;1.75;;;14.10;86.30;;;;;;7378967;19;20011;-73
2023/04/01 08:55:38;;;;;;;7.03;1.33;;;14.20;86.90;;;;;;7376489;19;20406;-73
2023/04/01 08:58:32;;;;;;;12.27;1.60;;;14.20;87.00;;;;;;7378141;19;20239;-74
2023/04/01 09:01:13;;;;;;;7.82;1.63;;;14.10;86.80;;;;;;7379052;19;20145;-73
2023/04/01 09:04:20;;;;;;;10.68;1.48;;;14.20;86.70;;;;;;7385606;19;20007;-73
2023/04/01 09:07:03;;;;;;;8.30;1.70;;;14.10;87.20;;;;;;7384088;19;20248;-73
2023/04/01 09:09:55;;;;;;;16.48;1.60;;;14.00;87.60;;;;;;7384924;19;20616;-73
2023/04/01 09:12:45;;;;;;;9.30;1.27;;;14.10;87.50;;;;;;7385448;19;20397;-74
2023/04/01 09:15:37;;;;;;;7.25;2.15;;;14.60;87.00;;;;;;7384906;19;20002;-72
2023/04/01 09:18:14;;;;;;;;;;;14.50;86.50;;;;;;7386517;19;20007;-73
2023/04/01 09:21:04;;;;;;;14.65;1.67;;;14.90;85.90;;;;;;7385311;19;19907;-72
2023/04/01 09:23:48;;;;;;;8.02;1.58;;;14.70;85.30;;;;;;7384323;19;20292;-70
2023/04/01 09:26:51;;;;;;;13.25;1.90;;;14.80;85.30;;;;;;7383107;19;20011;-71
2023/04/01 09:29:35;;;;;;;11.48;1.92;;;14.70;84.70;;;;;;7384919;19;20023;-71
2023/04/01 09:32:33;;;;;;;8.80;1.35;;;14.70;84.00;;;;;;7383380;19;20035;-75
2023/04/01 09:35:10;;;;;;;17.90;1.67;;;14.60;85.30;;;;;;7381901;19;20026;-71
2023/04/01 09:37:54;;;;;;;7.10;1.35;;;14.70;84.40;;;;;;7403533;19;20306;-69
2023/04/01 09:40:33;;;;;;;14.68;1.90;;;14.50;84.30;;;;;;7382742;19;20002;-72
2023/04/01 09:43:36;;;;;;;3.55;0.80;;;14.50;84.10;;;;;;7381407;19;20022;-74
2023/04/01 09:46:19;;;;;;;6.97;1.30;;;14.20;83.00;;;;;;7382511;19;20011;-70
2023/04/01 09:49:21;;;;;;;5.38;1.30;;;14.00;84.00;;;;;;7382829;19;20074;-71
2023/04/01 09:52:01;;;;;;;11.30;1.10;;;14.00;84.00;;;;;;7382431;19;20480;-71
2023/04/01 09:54:49;;;;;;;11.75;1.63;;;14.10;82.50;;;;;;7382536;19;20010;-71
2023/04/01 09:57:39;;;;;;;9.85;1.30;;;14.30;82.20;;;;;;7384377;19;20003;-71
2023/04/01 10:00:42;;;;;;;5.75;1.05;;;14.40;81.10;;;;;;7383943;19;20023;-71
2023/04/01 10:03:41;;;;;;;6.80;1.20;;;14.20;81.90;;;;;;7383683;19;20086;-72
2023/04/01 10:06:55;;;;;;;8.68;1.40;;;14.10;81.00;;;;;;7383863;19;20007;-72
2023/04/01 10:10:02;;;;;;;5.03;1.10;;;14.00;80.50;;;;;;7386281;19;20011;-72
2023/04/01 10:12:57;;;;;;;8.27;1.30;;;13.80;78.60;;;;;;7383705;19;20003;-72
2023/04/01 10:15:55;;;;;;;6.00;1.20;;;14.20;79.10;;;;;;7380777;19;20003;-71
2023/04/01 10:18:52;;;;;;;6.78;1.08;;;14.40;78.90;;;;;;7380548;19;20512;-72
2023/04/01 10:21:36;;;;;;;9.82;1.55;;;14.50;78.40;;;;;;7381474;19;20007;-72
2023/04/01 10:24:35;;;;;;;7.65;1.15;;;14.80;78.30;;;;;;7380534;19;20007;-73
2023/04/01 10:27:23;;;;;;;5.22;0.95;;;15.00;77.20;;;;;;7382879;19;20079;-74
2023/04/01 10:30:08;;;;;;;3.72;0.93;;;14.70;76.20;;;;;;7382216;19;20070;-73
2023/04/01 10:33:21;;;;;;;2.47;0.52;;;14.50;77.40;;;;;;7381505;19;20098;-72
2023/04/01 10:36:16;;;;;;;7.72;1.08;;;14.80;77.10;;;;;;7380553;19;20441;-72
2023/04/01 10:39:16;;;;;;;4.15;0.80;;;14.90;77.50;;;;;;7380285;19;20071;-73
2023/04/01 10:42:23;;;;;;;11.52;1.10;;;15.10;77.00;;;;;;7380487;19;20007;-72
2023/04/01 10:45:16;;;;;;;4.53;0.90;;;15.10;76.80;;;;;;7380152;19;20067;-72
2023/04/01 10:48:23;;;;;;;5.28;1.00;;;15.20;76.10;;;;;;7378705;19;20115;-71
2023/04/01 10:51:14;;;;;;;10.60;1.50;;;15.30;76.30;;;;;;7379825;19;20007;-72
2023/04/01 10:54:12;;;;;;;3.30;1.13;;;15.30;77.00;;;;;;7382019;19;20006;-73
2023/04/01 10:56:50;;;;;;;4.55;0.95;;;15.40;76.70;;;;;;7379864;19;20031;-75
2023/04/01 10:59:34;;;;;;;5.57;1.00;;;15.50;75.80;;;;;;7382500;19;19999;-73
2023/04/01 11:02:39;;;;;;;4.15;0.88;;;15.30;75.80;;;;;;7379355;19;20011;-74
2023/04/01 11:05:38;;;;;;;6.72;1.10;;;15.00;75.10;;;;;;7379984;19;20010;-71
2023/04/01 11:08:42;;;;;;;4.35;1.40;;;14.80;75.80;;;;;;7379606;19;20019;-71
2023/04/01 11:11:52;;;;;;;6.25;1.15;;;14.80;75.30;;;;;;7381051;19;20032;-71
2023/04/01 11:14:55;;;;;;;7.05;1.10;;;15.20;78.10;;;;;;7378320;19;20436;-71
2023/04/01 11:17:45;;;;;;;11.63;1.45;;;15.40;75.90;;;;;;7379034;19;20010;-72
2023/04/01 11:20:37;;;;;;;4.47;1.05;;;15.60;75.40;;;;;;7381961;19;20022;-73
2023/04/01 11:23:35;;;;;;;7.03;1.10;;;15.60;75.10;;;;;;7381894;19;20011;-73
2023/04/01 11:26:10;;;;;;;7.20;1.17;;;15.50;73.90;;;;;;7378525;19;20010;-72
2023/04/01 11:28:56;;;;;;;6.43;1.25;;;15.50;73.80;;;;;;7401212;19;20007;-75
2023/04/01 11:31:52;;;;;;;7.93;1.27;;;15.50;73.70;;;;;;7377883;19;20011;-75
2023/04/01 11:34:48;;;;;;;7.13;1.45;;;15.20;74.90;;;;;;7377006;19;20037;-75
2023/04/01 11:37:34;;;;;;;6.40;1.02;;;15.20;75.80;;;;;;7378721;19;20113;-74
2023/04/01 11:40:14;;;;;;;11.63;1.42;;;15.10;76.30;;;;;;7380747;19;20011;-74
2023/04/01 11:42:51;;;;;;;6.18;1.08;;;14.90;76.70;;;;;;7380296;19;20007;-75
2023/04/01 11:45:35;;;;;;;10.35;1.35;;;15.20;77.80;;;;;;7377846;19;20016;-73
2023/04/01 11:48:27;;;;;;;4.97;1.00;;;15.10;77.90;;;;;;7375906;19;20067;-74
2023/04/01 11:51:18;;;;;;;6.03;1.17;;;15.30;78.70;;;;;;7377918;19;20013;-74
2023/04/01 11:53:56;;;;;;;9.10;1.37;;;15.40;77.50;;;;;;7378349;19;20006;-74
2023/04/01 11:56:41;;;;;;;5.63;1.08;;;15.30;77.90;;;;;;7379711;19;20401;-75
2023/04/01 11:59:40;;;;;;;10.15;1.33;;;15.20;77.10;;;;;;7378403;19;20019;-76
2023/04/01 12:02:21;;;;;;;3.00;0.77;;;15.20;76.40;;;;;;7378726;19;20000;-74
2023/04/01 12:05:11;;;;;;;8.10;1.30;;;15.20;75.60;;;;;;7385950;19;20027;-75
2023/04/01 12:07:59;;;;;;;9.40;1.58;;;15.20;74.10;;;;;;7401663;19;20005;-75
2023/04/01 12:10:37;;;;;;;3.30;0.93;;;15.30;73.30;;;;;;7378207;19;20011;-76
2023/04/01 12:13:19;;;;;;;5.03;0.90;;;15.70;72.00;;;;;;7377798;19;20006;-74
2023/04/01 12:16:03;;;;;;;5.53;0.80;;;16.00;71.20;;;;;;7376088;19;20010;-76
2023/04/01 12:18:41;;;;;;;9.15;1.10;;;16.20;71.10;;;;;;7377918;19;20017;-77
2023/04/01 12:21:27;;;;;;;7.68;0.90;;;16.40;70.60;;;;;;7378839;19;20026;-76
2023/04/01 12:24:30;;;;;;;7.22;1.10;;;16.50;70.10;;;;;;7377923;19;20016;-74
2023/04/01 12:27:13;;;;;;;7.35;1.80;;;16.40;70.60;;;;;;7378397;19;20020;-74
2023/04/01 12:30:12;;;;;;;5.88;1.25;;;16.40;70.80;;;;;;7378897;19;20003;-75
2023/04/01 12:32:48;;;;;;;5.78;1.17;;;16.20;70.90;;;;;;7379084;19;20248;-73
2023/04/01 12:35:25;;;;;;;6.47;1.35;;;16.20;70.90;;;;;;7378053;19;19999;-75
2023/04/01 12:38:10;;;;;;;8.35;1.13;;;16.10;70.90;;;;;;7378719;19;20007;-75
2023/04/01 12:40:58;;;;;;;8.25;1.20;;;16.10;71.90;;;;;;7399281;19;20003;-76
2023/04/01 12:44:14;;;;;;;5.18;1.10;;;16.20;71.50;;;;;;7378199;19;20018;-75
2023/04/01 12:47:00;;;;;;;9.70;0.90;;;16.20;71.90;;;;;;7275085;19;2004707;-74
2023/04/01 12:49:47;;;;;;;5.03;1.20;;;16.50;71.10;;;;;;7405653;19;20011;-73
2023/04/01 12:52:26;;;;;;;5.25;0.90;;;16.20;71.80;;;;;;7381136;19;20011;-73
2023/04/01 12:55:28;;;;;;;4.28;1.00;;;16.20;72.20;;;;;;7379499;19;20003;-74
2023/04/01 12:58:20;;;;;;;7.28;1.17;;;16.00;74.60;;;;;;7375827;19;20007;-75
2023/04/01 13:01:14;;;;;;;6.38;0.90;;;15.50;83.10;;;;;;7376342;19;20747;-76
2023/04/01 13:04:00;;;;;;;7.43;1.05;;;15.60;85.20;;;;;;7375277;19;20106;-74
2023/04/01 13:06:44;;;;;;;4.40;1.20;;;15.40;85.70;;;;;;7375189;19;20010;-75
2023/04/01 13:09:31;;;;;;;5.53;1.30;;;15.50;84.20;;;;;;7375742;19;20023;-71
2023/04/01 13:12:21;;;;;;;5.15;0.95;;;15.30;82.60;;;;;;7374825;19;20006;-71
2023/04/01 13:15:15;;;;;;;7.78;1.17;;;15.60;83.00;;;;;;7373992;19;20282;-72
2023/04/01 13:17:52;;;;;;;4.53;1.20;;;15.40;81.70;;;;;;7375449;19;20003;-72
2023/04/01 13:20:31;;;;;;;6.78;1.20;;;15.80;81.30;;;;;;7376300;19;20378;-72
2023/04/01 13:23:13;;;;;;;5.82;1.30;;;16.00;80.90;;;;;;7375465;19;20027;-72
2023/04/01 13:25:53;;;;;;;6.05;1.33;;;16.40;76.90;;;;;;7399234;19;20024;-72
2023/04/01 13:28:26;;;;;;;5.10;1.67;;;16.60;75.70;;;;;;7377192;19;20010;-72
2023/04/01 13:31:03;;;;;;;5.28;1.08;;;16.60;73.40;;;;;;7376561;19;20013;-72
2023/04/01 13:33:40;;;;;;;9.45;1.20;;;16.80;73.80;;;;;;7376246;19;20006;-72
2023/04/01 13:36:20;;;;;;;4.15;1.52;;;16.90;72.40;;;;;;7376700;19;20007;-72
2023/04/01 13:39:10;;;;;;;5.03;0.90;;;16.90;71.10;;;;;;7377048;19;20024;-72
2023/04/01 13:41:58;;;;;;;4.45;0.93;;;16.70;69.70;;;;;;7376432;19;20007;-72
2023/04/01 13:44:35;;;;;;;3.17;0.80;;;16.70;71.30;;;;;;7378373;19;20114;-72